createdAt,value
2023-08-16T00:00:32.517Z,15.70
2023-08-16T00:03:19.198Z,15.70
2023-08-16T00:06:13.179Z,15.70
2023-08-16T00:09:00.782Z,15.60
2023-08-16T00:11:49.163Z,15.60
2023-08-16T00:14:35.962Z,15.60
2023-08-16T00:17:22.646Z,15.50
2023-08-16T00:20:11.521Z,15.50
2023-08-16T00:22:58.048Z,15.50
2023-08-16T00:25:44.661Z,15.40
2023-08-16T00:28:32.602Z,15.40
2023-08-16T00:31:20.664Z,15.40
2023-08-16T00:34:07.478Z,15.30
2023-08-16T00:36:53.863Z,15.30
2023-08-16T00:39:40.568Z,15.30
2023-08-16T00:42:27.524Z,15.30
2023-08-16T00:45:15.206Z,15.30
2023-08-16T00:48:02.105Z,15.30
2023-08-16T00:50:49.227Z,15.20
2023-08-16T00:53:38.291Z,15.20
2023-08-16T00:56:25.112Z,15.10
2023-08-16T00:59:12.412Z,15.10
2023-08-16T01:02:00.304Z,15.10
2023-08-16T01:04:48.712Z,15.10
2023-08-16T01:07:35.438Z,15.00
2023-08-16T01:10:28.004Z,15.00
2023-08-16T01:13:19.897Z,15.00
2023-08-16T01:16:09.487Z,14.90
2023-08-16T01:18:59.411Z,14.90
2023-08-16T01:21:53.400Z,14.90
2023-08-16T01:24:49.638Z,14.80
2023-08-16T01:27:37.856Z,14.80
2023-08-16T01:30:25.580Z,14.80
2023-08-16T01:33:13.298Z,14.80
2023-08-16T01:35:59.883Z,14.80
2023-08-16T01:38:47.141Z,14.70
2023-08-16T01:41:41.130Z,14.70
2023-08-16T01:44:30.127Z,14.70
2023-08-16T01:47:17.932Z,14.70
2023-08-16T01:50:05.348Z,14.70
2023-08-16T01:52:51.973Z,14.70
2023-08-16T01:55:39.149Z,14.60
2023-08-16T01:58:25.792Z,14.60
2023-08-16T02:01:14.026Z,14.60
2023-08-16T02:04:00.764Z,14.50
2023-08-16T02:06:47.367Z,14.50
2023-08-16T02:09:33.923Z,14.50
2023-08-16T02:12:20.508Z,14.50
2023-08-16T02:15:08.027Z,14.50
2023-08-16T02:17:56.001Z,14.50
2023-08-16T02:20:43.358Z,14.50
2023-08-16T02:23:30.140Z,14.40
2023-08-16T02:26:16.886Z,14.30
2023-08-16T02:29:03.872Z,14.30
2023-08-16T02:31:50.436Z,14.40
2023-08-16T02:34:38.289Z,14.40
2023-08-16T02:37:26.221Z,14.40
2023-08-16T02:40:13.857Z,14.30
2023-08-16T02:43:00.469Z,14.40
2023-08-16T02:45:47.226Z,14.30
2023-08-16T02:48:34.060Z,14.30
2023-08-16T02:51:21.992Z,14.20
2023-08-16T02:54:08.729Z,14.20
2023-08-16T02:56:55.359Z,14.20
2023-08-16T02:59:42.798Z,14.20
2023-08-16T03:02:29.908Z,14.20
2023-08-16T03:05:16.641Z,14.10
2023-08-16T03:08:04.617Z,14.10
2023-08-16T03:10:52.044Z,14.20
2023-08-16T03:13:38.978Z,14.20
2023-08-16T03:16:25.745Z,14.20
2023-08-16T03:19:12.379Z,14.20
2023-08-16T03:21:58.858Z,14.20
2023-08-16T03:24:47.945Z,14.20
2023-08-16T03:27:34.503Z,14.10
2023-08-16T03:30:21.132Z,14.10
2023-08-16T03:33:07.709Z,14.10
2023-08-16T03:35:54.619Z,14.00
2023-08-16T03:38:42.418Z,14.00
2023-08-16T03:41:30.404Z,14.00
2023-08-16T03:44:16.937Z,13.90
2023-08-16T03:47:05.078Z,13.90
2023-08-16T03:49:51.512Z,14.00
2023-08-16T03:52:38.084Z,13.90
2023-08-16T03:55:24.776Z,13.90
2023-08-16T03:58:12.841Z,13.90
2023-08-16T04:00:59.570Z,13.90
2023-08-16T04:03:46.469Z,13.90
2023-08-16T04:06:33.154Z,13.90
2023-08-16T04:09:19.730Z,13.90
2023-08-16T04:12:06.650Z,13.90
2023-08-16T04:14:54.746Z,13.90
2023-08-16T04:17:41.618Z,13.90
2023-08-16T04:20:28.467Z,13.80
2023-08-16T04:23:15.038Z,13.80
2023-08-16T04:26:02.757Z,13.80
2023-08-16T04:28:49.934Z,13.80
2023-08-16T04:31:38.500Z,13.80
2023-08-16T04:34:25.342Z,13.80
2023-08-16T04:37:12.117Z,13.80
2023-08-16T04:39:58.677Z,13.80
2023-08-16T04:42:45.733Z,13.80
2023-08-16T04:45:32.552Z,13.80
2023-08-16T04:48:20.710Z,13.80
2023-08-16T04:51:07.671Z,13.90
2023-08-16T04:53:54.482Z,14.00
2023-08-16T04:56:40.955Z,14.00
2023-08-16T04:59:27.651Z,14.10
2023-08-16T05:02:14.941Z,14.30
2023-08-16T05:05:02.753Z,14.30
2023-08-16T05:07:49.696Z,14.50
2023-08-16T05:10:36.266Z,14.60
2023-08-16T05:13:22.959Z,14.50
2023-08-16T05:16:09.604Z,14.50
2023-08-16T05:18:58.784Z,14.60
2023-08-16T05:21:46.995Z,14.60
2023-08-16T05:24:33.847Z,14.70
2023-08-16T05:27:20.419Z,14.80
2023-08-16T05:30:08.433Z,14.90
2023-08-16T05:32:56.538Z,14.90
2023-08-16T05:35:43.583Z,15.00
2023-08-16T05:38:31.543Z,15.10
2023-08-16T05:41:20.878Z,15.30
2023-08-16T05:44:07.830Z,15.40
2023-08-16T05:46:54.760Z,15.50
2023-08-16T05:49:41.900Z,15.70
2023-08-16T05:52:31.149Z,15.80
2023-08-16T05:55:22.363Z,15.90
2023-08-16T05:58:09.311Z,16.10
2023-08-16T06:00:57.159Z,16.10
2023-08-16T06:03:43.826Z,16.20
2023-08-16T06:06:30.440Z,16.40
2023-08-16T06:09:18.715Z,16.50
2023-08-16T06:12:08.854Z,16.60
2023-08-16T06:14:55.453Z,16.70
2023-08-16T06:17:42.144Z,16.80
2023-08-16T06:20:29.321Z,16.80
2023-08-16T06:23:18.643Z,16.90
2023-08-16T06:26:05.286Z,17.00
2023-08-16T06:28:53.759Z,17.20
2023-08-16T06:31:41.057Z,17.40
2023-08-16T06:34:28.318Z,17.60
2023-08-16T06:37:17.556Z,17.60
2023-08-16T06:40:06.290Z,17.70
2023-08-16T06:42:53.122Z,18.40
2023-08-16T06:45:41.248Z,19.30
2023-08-16T06:48:28.063Z,20.10
2023-08-16T06:51:14.607Z,20.60
2023-08-16T06:54:01.629Z,21.10
2023-08-16T06:56:48.515Z,21.50
2023-08-16T06:59:35.058Z,21.90
2023-08-16T07:02:23.491Z,21.90
2023-08-16T07:05:12.833Z,22.60
2023-08-16T07:07:59.762Z,23.00
2023-08-16T07:10:46.651Z,22.90
2023-08-16T07:13:33.312Z,23.50
2023-08-16T07:16:22.343Z,23.70
2023-08-16T07:19:10.741Z,23.70
2023-08-16T07:21:57.613Z,24.30
2023-08-16T07:24:44.134Z,25.20
2023-08-16T07:27:30.860Z,25.60
2023-08-16T07:30:18.742Z,25.70
2023-08-16T07:33:06.764Z,24.50
2023-08-16T07:35:55.261Z,24.60
2023-08-16T07:38:41.922Z,25.00
2023-08-16T07:41:28.698Z,25.20
2023-08-16T07:44:15.205Z,25.90
2023-08-16T07:47:02.784Z,27.00
2023-08-16T07:49:50.146Z,27.80
2023-08-16T07:52:38.238Z,27.90
2023-08-16T07:55:30.236Z,27.30
2023-08-16T07:58:17.212Z,27.40
2023-08-16T08:01:03.790Z,28.40
2023-08-16T08:03:50.583Z,28.80
2023-08-16T08:06:39.643Z,28.20
2023-08-16T08:09:28.015Z,28.50
2023-08-16T08:12:14.592Z,28.00
2023-08-16T08:15:01.125Z,28.30
2023-08-16T08:17:48.689Z,28.50
2023-08-16T08:20:35.683Z,28.40
2023-08-16T08:23:22.460Z,28.30
2023-08-16T08:26:12.045Z,28.80
2023-08-16T08:28:59.440Z,29.00
2023-08-16T08:31:46.129Z,29.40
2023-08-16T08:34:33.630Z,29.40
2023-08-16T08:37:20.708Z,30.20
2023-08-16T08:40:09.157Z,30.40
2023-08-16T08:42:59.974Z,29.80
2023-08-16T08:45:49.712Z,30.90
2023-08-16T08:48:38.721Z,31.20
2023-08-16T08:51:28.282Z,31.40
2023-08-16T08:54:14.972Z,31.40
2023-08-16T08:57:01.900Z,30.90
2023-08-16T08:59:51.528Z,31.30
2023-08-16T09:02:39.509Z,32.10
2023-08-16T09:05:26.351Z,31.30
2023-08-16T09:08:14.686Z,31.40
2023-08-16T09:11:01.887Z,32.40
2023-08-16T09:13:50.284Z,31.00
2023-08-16T09:16:38.385Z,31.20
2023-08-16T09:19:25.333Z,31.50
2023-08-16T09:22:13.113Z,32.30
2023-08-16T09:25:00.138Z,32.10
2023-08-16T09:27:47.154Z,31.20
2023-08-16T09:30:34.795Z,31.00
2023-08-16T09:33:24.315Z,31.00
2023-08-16T09:36:11.243Z,31.10
2023-08-16T09:39:02.276Z,30.90
2023-08-16T09:41:50.766Z,31.40
2023-08-16T09:44:41.224Z,31.80
2023-08-16T09:50:23.551Z,32.30
2023-08-16T09:56:20.670Z,34.20
2023-08-16T10:04:59.809Z,33.90
2023-08-16T10:07:50.275Z,33.90
2023-08-16T10:10:37.587Z,34.20
2023-08-16T10:13:25.574Z,33.90
2023-08-16T10:16:16.403Z,33.30
2023-08-16T10:19:05.883Z,33.00
2023-08-16T10:21:55.100Z,32.90
2023-08-16T10:24:50.839Z,32.80
2023-08-16T10:27:40.152Z,32.30
2023-08-16T10:30:28.194Z,33.00
2023-08-16T10:33:19.554Z,33.10
2023-08-16T10:36:08.398Z,33.40
2023-08-16T10:38:59.349Z,32.90
2023-08-16T10:41:52.506Z,31.60
2023-08-16T10:44:40.555Z,31.40
2023-08-16T10:47:31.312Z,31.10
2023-08-16T10:50:18.390Z,30.70
2023-08-16T10:53:07.595Z,30.30
2023-08-16T10:55:56.661Z,30.40
2023-08-16T10:58:50.578Z,30.20
2023-08-16T11:01:37.664Z,30.10
2023-08-16T11:04:24.525Z,29.70
2023-08-16T11:07:13.419Z,29.60
2023-08-16T11:10:02.329Z,29.30
2023-08-16T11:12:50.634Z,29.40
2023-08-16T11:15:39.342Z,29.50
2023-08-16T11:18:34.550Z,29.50
2023-08-16T11:21:22.186Z,29.50
2023-08-16T11:24:12.060Z,29.60
2023-08-16T11:26:58.887Z,29.70
2023-08-16T11:29:50.820Z,30.90
2023-08-16T11:32:41.348Z,32.00
2023-08-16T11:35:28.326Z,32.60
2023-08-16T11:38:16.614Z,32.80
2023-08-16T11:41:03.930Z,33.90
2023-08-16T11:44:01.228Z,34.00
2023-08-16T11:46:50.488Z,34.20
2023-08-16T11:49:42.418Z,33.70
2023-08-16T11:52:29.288Z,33.50
2023-08-16T11:55:17.093Z,33.50
2023-08-16T11:58:05.587Z,33.70
2023-08-16T12:00:53.151Z,33.70
2023-08-16T12:03:40.250Z,34.00
2023-08-16T12:06:28.786Z,33.90
2023-08-16T12:09:17.636Z,34.10
2023-08-16T12:12:10.057Z,33.80
2023-08-16T12:14:56.696Z,33.70
2023-08-16T12:17:43.498Z,34.20
2023-08-16T12:20:31.512Z,34.70
2023-08-16T12:23:19.664Z,34.50
2023-08-16T12:26:07.602Z,35.10
2023-08-16T12:28:56.031Z,35.00
2023-08-16T12:31:43.685Z,33.90
2023-08-16T12:34:30.528Z,33.40
2023-08-16T12:37:17.361Z,32.90
2023-08-16T12:40:06.587Z,32.70
2023-08-16T12:42:53.479Z,31.70
2023-08-16T12:45:40.415Z,31.40
2023-08-16T12:48:27.106Z,31.30
2023-08-16T12:51:17.154Z,31.20
2023-08-16T12:54:04.575Z,30.70
2023-08-16T12:59:51.608Z,30.00
2023-08-16T13:02:38.911Z,29.70
2023-08-16T13:05:33.086Z,29.60
2023-08-16T13:11:12.208Z,29.70
2023-08-16T13:14:01.222Z,29.60
2023-08-16T13:17:02.551Z,29.50
2023-08-16T13:20:02.189Z,29.30
2023-08-16T13:22:50.938Z,29.00
2023-08-16T13:28:46.118Z,29.00
2023-08-16T13:31:59.729Z,29.00
2023-08-16T13:34:57.497Z,28.90
2023-08-16T13:37:45.396Z,29.40
2023-08-16T13:40:34.372Z,30.00
2023-08-16T13:43:25.855Z,30.20
2023-08-16T13:46:13.489Z,30.60
2023-08-16T13:49:02.168Z,31.10
2023-08-16T13:51:48.968Z,31.40
2023-08-16T13:54:35.564Z,31.30
2023-08-16T13:57:23.015Z,30.70
2023-08-16T14:00:11.058Z,30.80
2023-08-16T14:02:57.683Z,31.00
2023-08-16T14:05:45.866Z,31.30
2023-08-16T14:08:32.583Z,31.30
2023-08-16T14:11:19.224Z,31.20
2023-08-16T14:14:06.026Z,31.10
2023-08-16T14:16:53.210Z,30.80
2023-08-16T14:19:40.143Z,30.70
2023-08-16T14:22:28.216Z,30.80
2023-08-16T14:25:20.999Z,30.80
2023-08-16T14:28:08.600Z,30.90
2023-08-16T14:30:55.392Z,31.10
2023-08-16T14:33:41.966Z,31.10
2023-08-16T14:36:28.688Z,31.20
2023-08-16T14:39:16.632Z,31.20
2023-08-16T14:42:08.670Z,31.10
2023-08-16T14:44:55.842Z,30.50
2023-08-16T14:47:43.079Z,30.70
2023-08-16T14:50:29.809Z,31.00
2023-08-16T14:53:16.431Z,30.90
2023-08-16T14:56:04.673Z,30.80
2023-08-16T14:58:51.448Z,30.90
2023-08-16T15:01:38.609Z,31.00
2023-08-16T15:04:27.717Z,30.60
2023-08-16T15:07:15.055Z,30.50
2023-08-16T15:10:01.975Z,30.70
2023-08-16T15:12:49.979Z,30.70
2023-08-16T15:15:37.221Z,30.80
2023-08-16T15:18:24.158Z,30.60
2023-08-16T15:21:10.888Z,30.60
2023-08-16T15:23:57.670Z,30.70
2023-08-16T15:26:44.292Z,30.90
2023-08-16T15:29:32.650Z,30.70
2023-08-16T15:32:19.253Z,30.60
2023-08-16T15:35:06.733Z,30.70
2023-08-16T15:37:53.212Z,30.70
2023-08-16T15:40:39.686Z,30.60
2023-08-16T15:43:26.671Z,30.50
2023-08-16T15:46:15.676Z,30.50
2023-08-16T15:49:02.670Z,30.50
2023-08-16T15:51:49.351Z,30.40
2023-08-16T15:54:36.002Z,30.40
2023-08-16T15:57:22.855Z,30.10
2023-08-16T16:00:11.458Z,30.30
2023-08-16T16:02:59.766Z,30.00
2023-08-16T16:05:46.713Z,30.10
2023-08-16T16:08:35.394Z,30.10
2023-08-16T16:11:23.165Z,30.00
2023-08-16T16:14:09.906Z,29.40
2023-08-16T16:17:23.592Z,29.20
2023-08-16T16:20:13.850Z,29.10
2023-08-16T16:23:01.408Z,29.00
2023-08-16T16:25:48.343Z,28.80
2023-08-16T16:28:35.193Z,28.40
2023-08-16T16:31:22.119Z,28.30
2023-08-16T16:34:08.595Z,28.20
2023-08-16T16:36:56.677Z,28.00
2023-08-16T16:39:43.435Z,27.70
2023-08-16T16:42:29.985Z,27.80
2023-08-16T16:45:16.751Z,27.80
2023-08-16T16:48:03.438Z,27.70
2023-08-16T16:50:50.110Z,27.80
2023-08-16T16:53:38.260Z,28.00
2023-08-16T16:56:25.165Z,28.10
2023-08-16T16:59:11.991Z,28.10
2023-08-16T17:01:58.542Z,28.10
2023-08-16T17:04:45.057Z,28.40
2023-08-16T17:07:32.315Z,28.40
2023-08-16T17:10:20.388Z,28.40
2023-08-16T17:13:06.828Z,28.30
2023-08-16T17:15:53.448Z,28.20
2023-08-16T17:18:40.037Z,28.20
2023-08-16T17:21:27.005Z,28.00
2023-08-16T17:24:14.413Z,27.90
2023-08-16T17:27:03.334Z,28.00
2023-08-16T17:29:50.485Z,27.50
2023-08-16T17:32:39.640Z,27.30
2023-08-16T17:35:26.471Z,27.20
2023-08-16T17:38:13.600Z,26.90
2023-08-16T17:41:00.515Z,26.80
2023-08-16T17:43:49.045Z,26.40
2023-08-16T17:46:36.484Z,26.20
2023-08-16T17:49:23.786Z,26.00
2023-08-16T17:52:11.207Z,25.90
2023-08-16T17:54:58.399Z,25.90
2023-08-16T17:57:48.413Z,25.80
2023-08-16T18:00:38.820Z,25.70
2023-08-16T18:03:25.954Z,25.50
2023-08-16T18:06:13.511Z,25.30
2023-08-16T18:09:00.186Z,25.20
2023-08-16T18:11:47.062Z,25.00
2023-08-16T18:14:34.049Z,24.90
2023-08-16T18:17:23.276Z,24.80
2023-08-16T18:20:12.185Z,24.60
2023-08-16T18:23:00.278Z,24.50
2023-08-16T18:25:46.956Z,24.30
2023-08-16T18:28:33.703Z,24.10
2023-08-16T18:31:21.046Z,23.90
2023-08-16T18:34:09.678Z,23.80
2023-08-16T18:36:56.813Z,23.60
2023-08-16T18:39:44.064Z,23.40
2023-08-16T18:42:30.962Z,23.20
2023-08-16T18:45:17.801Z,23.00
2023-08-16T18:48:05.096Z,22.80
2023-08-16T18:50:53.341Z,22.70
2023-08-16T18:53:40.661Z,22.60
2023-08-16T18:56:27.633Z,22.40
2023-08-16T18:59:16.452Z,22.30
2023-08-16T19:02:03.121Z,22.10
2023-08-16T19:04:50.355Z,22.10
2023-08-16T19:07:38.798Z,21.90
2023-08-16T19:10:25.986Z,21.80
2023-08-16T19:13:14.126Z,21.80
2023-08-16T19:16:01.190Z,21.70
2023-08-16T19:18:48.030Z,21.50
2023-08-16T19:21:36.533Z,21.40
2023-08-16T19:24:24.645Z,21.30
2023-08-16T19:27:11.840Z,21.20
2023-08-16T19:29:59.019Z,21.10
2023-08-16T19:32:45.599Z,21.10
2023-08-16T19:35:32.233Z,21.00
2023-08-16T19:38:19.154Z,20.90
2023-08-16T19:41:07.503Z,20.80
2023-08-16T19:43:58.795Z,20.80
2023-08-16T19:46:46.140Z,20.70
2023-08-16T19:49:33.016Z,20.60
2023-08-16T19:52:19.946Z,20.60
2023-08-16T19:55:07.405Z,20.60
2023-08-16T19:57:55.440Z,20.50
2023-08-16T20:00:42.428Z,20.50
2023-08-16T20:03:28.941Z,20.50
2023-08-16T20:06:15.681Z,20.40
2023-08-16T20:09:02.632Z,20.40
2023-08-16T20:11:49.463Z,20.30
2023-08-16T20:14:37.411Z,20.20
2023-08-16T20:17:25.141Z,20.10
2023-08-16T20:20:14.901Z,20.00
2023-08-16T20:23:01.709Z,19.90
2023-08-16T20:25:48.284Z,19.80
2023-08-16T20:28:34.822Z,19.70
2023-08-16T20:31:22.687Z,19.70
2023-08-16T20:34:09.435Z,19.50
2023-08-16T20:36:57.070Z,19.40
2023-08-16T20:39:44.154Z,19.40
2023-08-16T20:42:35.705Z,19.30
2023-08-16T20:45:22.910Z,19.20
2023-08-16T20:48:12.263Z,19.10
2023-08-16T20:50:59.013Z,19.00
2023-08-16T20:53:45.842Z,19.00
2023-08-16T20:56:32.650Z,19.00
2023-08-16T20:59:19.618Z,18.90
2023-08-16T21:02:06.256Z,18.90
2023-08-16T21:04:54.447Z,18.80
2023-08-16T21:07:41.108Z,18.80
2023-08-16T21:10:27.965Z,18.70
2023-08-16T21:13:16.183Z,18.60
2023-08-16T21:16:03.800Z,18.60
2023-08-16T21:18:50.439Z,18.50
2023-08-16T21:21:39.107Z,18.40
2023-08-16T21:24:25.800Z,18.40
2023-08-16T21:27:12.316Z,18.30
2023-08-16T21:29:59.281Z,18.20
2023-08-16T21:32:46.796Z,18.20
2023-08-16T21:35:34.641Z,18.10
2023-08-16T21:38:23.028Z,18.10
2023-08-16T21:41:09.675Z,18.00
2023-08-16T21:43:56.435Z,18.00
2023-08-16T21:46:44.376Z,17.90
2023-08-16T21:49:31.220Z,17.80
2023-08-16T21:52:17.796Z,17.80
2023-08-16T21:55:07.054Z,17.70
2023-08-16T21:57:53.687Z,17.70
2023-08-16T22:00:40.159Z,17.70
2023-08-16T22:03:26.892Z,17.60
2023-08-16T22:06:14.142Z,17.60
2023-08-16T22:09:01.042Z,17.50
2023-08-16T22:11:49.179Z,17.50
2023-08-16T22:14:36.007Z,17.50
2023-08-16T22:17:23.381Z,17.50
2023-08-16T22:20:13.123Z,17.30
2023-08-16T22:22:59.655Z,17.30
2023-08-16T22:25:46.296Z,17.30
2023-08-16T22:28:34.376Z,17.20
2023-08-16T22:31:20.942Z,17.10
2023-08-16T22:34:07.704Z,17.00
2023-08-16T22:36:54.381Z,17.00
2023-08-16T22:39:43.283Z,17.00
2023-08-16T22:42:32.796Z,17.00
2023-08-16T22:45:21.088Z,17.00
2023-08-16T22:48:08.457Z,16.90
2023-08-16T22:50:55.487Z,16.90
2023-08-16T22:53:42.234Z,16.90
2023-08-16T22:56:28.887Z,16.90
2023-08-16T22:59:15.603Z,16.90
2023-08-16T23:02:03.615Z,16.80
2023-08-16T23:04:50.403Z,16.80
2023-08-16T23:07:37.071Z,16.80
2023-08-16T23:10:23.921Z,16.80
2023-08-16T23:13:10.996Z,16.70
2023-08-16T23:15:57.517Z,16.70
2023-08-16T23:18:46.003Z,16.70
2023-08-16T23:21:33.037Z,16.60
2023-08-16T23:24:19.779Z,16.60
2023-08-16T23:27:06.425Z,16.60
2023-08-16T23:29:53.254Z,16.60
2023-08-16T23:32:39.990Z,16.60
2023-08-16T23:35:27.908Z,16.60
2023-08-16T23:38:14.708Z,16.50
2023-08-16T23:41:01.374Z,16.50
2023-08-16T23:43:47.874Z,16.50
2023-08-16T23:46:34.328Z,16.40
2023-08-16T23:49:21.801Z,16.40
2023-08-16T23:52:10.620Z,16.30
2023-08-16T23:54:57.315Z,16.30
2023-08-16T23:57:45.437Z,16.30
